sensor_id;sensor_type;location;lat;lon;timestamp;temperature;humidity
12315;DHT22;23886;46.614;14.276;2023-04-24T00:01:06;11.00;99.90
12315;DHT22;23886;46.614;14.276;2023-04-24T00:03:34;11.00;99.90
12315;DHT22;23886;46.614;14.276;2023-04-24T00:06:01;11.20;99.90
12315;DHT22;23886;46.614;14.276;2023-04-24T00:08:29;11.20;99.90
12315;DHT22;23886;46.614;14.276;2023-04-24T00:10:56;11.20;99.90
12315;DHT22;23886;46.614;14.276;2023-04-24T00:13:24;11.20;99.90
12315;DHT22;23886;46.614;14.276;2023-04-24T00:15:51;11.10;99.90
12315;DHT22;23886;46.614;14.276;2023-04-24T00:18:18;11.00;99.90
12315;DHT22;23886;46.614;14.276;2023-04-24T00:20:45;11.00;99.90
12315;DHT22;23886;46.614;14.276;2023-04-24T00:23:12;11.00;99.90
12315;DHT22;23886;46.614;14.276;2023-04-24T00:25:39;11.10;99.90
12315;DHT22;23886;46.614;14.276;2023-04-24T00:28:06;11.20;99.90
12315;DHT22;23886;46.614;14.276;2023-04-24T00:30:35;11.40;99.90
12315;DHT22;23886;46.614;14.276;2023-04-24T00:33:02;11.60;99.90
12315;DHT22;23886;46.614;14.276;2023-04-24T00:35:29;11.60;99.90
12315;DHT22;23886;46.614;14.276;2023-04-24T00:37:56;11.40;99.90
12315;DHT22;23886;46.614;14.276;2023-04-24T00:40:23;11.30;99.90
12315;DHT22;23886;46.614;14.276;2023-04-24T00:42:50;11.20;99.90
12315;DHT22;23886;46.614;14.276;2023-04-24T00:45:17;11.40;99.90
12315;DHT22;23886;46.614;14.276;2023-04-24T00:47:46;11.30;99.90
12315;DHT22;23886;46.614;14.276;2023-04-24T00:50:15;11.30;99.90
12315;DHT22;23886;46.614;14.276;2023-04-24T00:52:42;11.20;99.90
12315;DHT22;23886;46.614;14.276;2023-04-24T00:55:09;11.10;99.90
12315;DHT22;23886;46.614;14.276;2023-04-24T00:57:37;11.10;99.90
12315;DHT22;23886;46.614;14.276;2023-04-24T01:00:05;11.00;99.90
12315;DHT22;23886;46.614;14.276;2023-04-24T01:02:37;11.10;99.90
12315;DHT22;23886;46.614;14.276;2023-04-24T01:05:11;11.00;99.90
12315;DHT22;23886;46.614;14.276;2023-04-24T01:07:39;11.10;99.90
12315;DHT22;23886;46.614;14.276;2023-04-24T01:10:10;11.20;99.90
12315;DHT22;23886;46.614;14.276;2023-04-24T01:12:37;11.10;99.90
12315;DHT22;23886;46.614;14.276;2023-04-24T01:15:05;11.00;99.90
12315;DHT22;23886;46.614;14.276;2023-04-24T01:17:32;10.90;99.90
12315;DHT22;23886;46.614;14.276;2023-04-24T01:19:59;10.90;99.90
12315;DHT22;23886;46.614;14.276;2023-04-24T01:22:28;10.90;99.90
12315;DHT22;23886;46.614;14.276;2023-04-24T01:24:55;10.90;99.90
12315;DHT22;23886;46.614;14.276;2023-04-24T01:27:22;10.90;99.90
12315;DHT22;23886;46.614;14.276;2023-04-24T01:29:50;10.80;99.90
12315;DHT22;23886;46.614;14.276;2023-04-24T01:32:17;10.70;99.90
12315;DHT22;23886;46.614;14.276;2023-04-24T01:34:45;10.70;99.90
12315;DHT22;23886;46.614;14.276;2023-04-24T01:37:13;10.60;99.90
12315;DHT22;23886;46.614;14.276;2023-04-24T01:39:42;10.60;99.90
12315;DHT22;23886;46.614;14.276;2023-04-24T01:42:10;10.70;99.90
12315;DHT22;23886;46.614;14.276;2023-04-24T01:44:37;10.90;99.90
12315;DHT22;23886;46.614;14.276;2023-04-24T01:47:04;10.80;99.90
12315;DHT22;23886;46.614;14.276;2023-04-24T01:49:32;10.80;99.90
12315;DHT22;23886;46.614;14.276;2023-04-24T01:51:59;10.70;99.90
12315;DHT22;23886;46.614;14.276;2023-04-24T01:54:26;10.60;99.90
12315;DHT22;23886;46.614;14.276;2023-04-24T01:56:55;10.60;99.90
12315;DHT22;23886;46.614;14.276;2023-04-24T01:59:23;10.60;99.90
12315;DHT22;23886;46.614;14.276;2023-04-24T02:01:51;10.60;99.90
12315;DHT22;23886;46.614;14.276;2023-04-24T02:04:18;10.50;99.90
12315;DHT22;23886;46.614;14.276;2023-04-24T02:06:45;10.50;99.90
12315;DHT22;23886;46.614;14.276;2023-04-24T02:09:12;10.50;99.90
12315;DHT22;23886;46.614;14.276;2023-04-24T02:11:39;10.40;99.90
12315;DHT22;23886;46.614;14.276;2023-04-24T02:14:08;10.40;99.90
12315;DHT22;23886;46.614;14.276;2023-04-24T02:16:35;10.30;99.90
12315;DHT22;23886;46.614;14.276;2023-04-24T02:19:02;10.30;99.90
12315;DHT22;23886;46.614;14.276;2023-04-24T02:21:29;10.40;99.90
12315;DHT22;23886;46.614;14.276;2023-04-24T02:23:56;10.30;99.90
12315;DHT22;23886;46.614;14.276;2023-04-24T02:26:23;10.20;99.90
12315;DHT22;23886;46.614;14.276;2023-04-24T02:28:50;10.30;99.90
12315;DHT22;23886;46.614;14.276;2023-04-24T02:31:19;10.40;99.90
12315;DHT22;23886;46.614;14.276;2023-04-24T02:33:46;10.30;99.90
12315;DHT22;23886;46.614;14.276;2023-04-24T02:36:13;10.30;99.90
12315;DHT22;23886;46.614;14.276;2023-04-24T02:38:40;10.20;99.90
12315;DHT22;23886;46.614;14.276;2023-04-24T02:41:07;10.20;99.90
12315;DHT22;23886;46.614;14.276;2023-04-24T02:43:34;10.30;99.90
12315;DHT22;23886;46.614;14.276;2023-04-24T02:46:01;10.40;99.90
12315;DHT22;23886;46.614;14.276;2023-04-24T02:48:29;10.40;99.90
12315;DHT22;23886;46.614;14.276;2023-04-24T02:50:56;10.50;99.90
12315;DHT22;23886;46.614;14.276;2023-04-24T02:53:24;10.50;99.90
12315;DHT22;23886;46.614;14.276;2023-04-24T02:55:51;10.60;99.90
12315;DHT22;23886;46.614;14.276;2023-04-24T02:58:18;10.70;99.90
12315;DHT22;23886;46.614;14.276;2023-04-24T03:00:46;10.60;99.90
12315;DHT22;23886;46.614;14.276;2023-04-24T03:03:13;10.60;99.90
12315;DHT22;23886;46.614;14.276;2023-04-24T03:05:42;10.60;99.90
12315;DHT22;23886;46.614;14.276;2023-04-24T03:08:09;10.60;99.90
12315;DHT22;23886;46.614;14.276;2023-04-24T03:10:36;10.60;99.90
12315;DHT22;23886;46.614;14.276;2023-04-24T03:13:03;10.50;99.90
12315;DHT22;23886;46.614;14.276;2023-04-24T03:15:30;10.40;99.90
12315;DHT22;23886;46.614;14.276;2023-04-24T03:17:57;10.40;99.90
12315;DHT22;23886;46.614;14.276;2023-04-24T03:20:26;10.40;99.90
12315;DHT22;23886;46.614;14.276;2023-04-24T03:22:54;10.30;99.90
12315;DHT22;23886;46.614;14.276;2023-04-24T03:25:22;10.30;99.90
12315;DHT22;23886;46.614;14.276;2023-04-24T03:27:49;10.30;99.90
12315;DHT22;23886;46.614;14.276;2023-04-24T03:30:16;10.40;99.90
12315;DHT22;23886;46.614;14.276;2023-04-24T03:32:43;10.50;99.90
12315;DHT22;23886;46.614;14.276;2023-04-24T03:35:10;10.40;99.90
12315;DHT22;23886;46.614;14.276;2023-04-24T03:37:37;10.30;99.90
12315;DHT22;23886;46.614;14.276;2023-04-24T03:40:07;10.20;99.90
12315;DHT22;23886;46.614;14.276;2023-04-24T03:42:34;10.20;99.90
12315;DHT22;23886;46.614;14.276;2023-04-24T03:45:01;10.10;99.90
12315;DHT22;23886;46.614;14.276;2023-04-24T03:47:28;10.10;99.90
12315;DHT22;23886;46.614;14.276;2023-04-24T03:49:55;10.20;99.90
12315;DHT22;23886;46.614;14.276;2023-04-24T03:52:22;10.20;99.90
12315;DHT22;23886;46.614;14.276;2023-04-24T03:54:49;10.10;99.90
12315;DHT22;23886;46.614;14.276;2023-04-24T03:57:17;10.10;99.90
12315;DHT22;23886;46.614;14.276;2023-04-24T03:59:44;10.10;99.90
12315;DHT22;23886;46.614;14.276;2023-04-24T04:02:11;10.10;99.90
12315;DHT22;23886;46.614;14.276;2023-04-24T04:04:38;9.90;99.90
12315;DHT22;23886;46.614;14.276;2023-04-24T04:07:05;9.90;99.90
12315;DHT22;23886;46.614;14.276;2023-04-24T04:09:33;9.90;99.90
12315;DHT22;23886;46.614;14.276;2023-04-24T04:12:00;9.90;99.90
12315;DHT22;23886;46.614;14.276;2023-04-24T04:14:28;10.00;99.90
12315;DHT22;23886;46.614;14.276;2023-04-24T04:16:55;10.00;99.90
12315;DHT22;23886;46.614;14.276;2023-04-24T04:19:22;9.90;99.90
12315;DHT22;23886;46.614;14.276;2023-04-24T04:21:49;9.80;99.90
12315;DHT22;23886;46.614;14.276;2023-04-24T04:24:18;9.70;99.90
12315;DHT22;23886;46.614;14.276;2023-04-24T04:26:46;9.70;99.90
12315;DHT22;23886;46.614;14.276;2023-04-24T04:29:13;9.90;99.90
12315;DHT22;23886;46.614;14.276;2023-04-24T04:31:42;10.00;99.90
12315;DHT22;23886;46.614;14.276;2023-04-24T04:34:09;10.00;99.90
12315;DHT22;23886;46.614;14.276;2023-04-24T04:36:37;10.00;99.90
12315;DHT22;23886;46.614;14.276;2023-04-24T04:39:05;10.00;99.90
12315;DHT22;23886;46.614;14.276;2023-04-24T04:41:33;10.00;99.90
12315;DHT22;23886;46.614;14.276;2023-04-24T04:44:01;10.00;99.90
12315;DHT22;23886;46.614;14.276;2023-04-24T04:46:30;9.90;99.90
12315;DHT22;23886;46.614;14.276;2023-04-24T04:49:00;9.90;99.90
12315;DHT22;23886;46.614;14.276;2023-04-24T04:51:28;10.10;99.90
12315;DHT22;23886;46.614;14.276;2023-04-24T04:53:56;10.20;99.90
12315;DHT22;23886;46.614;14.276;2023-04-24T04:56:23;10.20;99.90
12315;DHT22;23886;46.614;14.276;2023-04-24T04:58:50;10.10;99.90
12315;DHT22;23886;46.614;14.276;2023-04-24T05:01:17;10.00;99.90
12315;DHT22;23886;46.614;14.276;2023-04-24T05:03:44;10.10;99.90
12315;DHT22;23886;46.614;14.276;2023-04-24T05:06:12;10.10;99.90
12315;DHT22;23886;46.614;14.276;2023-04-24T05:08:39;10.20;99.90
12315;DHT22;23886;46.614;14.276;2023-04-24T05:11:06;10.30;99.90
12315;DHT22;23886;46.614;14.276;2023-04-24T05:13:33;10.30;99.90
12315;DHT22;23886;46.614;14.276;2023-04-24T05:16:00;10.30;99.90
12315;DHT22;23886;46.614;14.276;2023-04-24T05:18:27;10.30;99.90
12315;DHT22;23886;46.614;14.276;2023-04-24T05:20:54;10.20;99.90
12315;DHT22;23886;46.614;14.276;2023-04-24T05:23:23;10.30;99.90
12315;DHT22;23886;46.614;14.276;2023-04-24T05:25:50;10.30;99.90
12315;DHT22;23886;46.614;14.276;2023-04-24T05:28:17;10.40;99.90
12315;DHT22;23886;46.614;14.276;2023-04-24T05:30:44;10.40;99.90
12315;DHT22;23886;46.614;14.276;2023-04-24T05:33:11;10.50;99.90
12315;DHT22;23886;46.614;14.276;2023-04-24T05:35:40;10.60;99.90
12315;DHT22;23886;46.614;14.276;2023-04-24T05:38:11;10.60;99.90
12315;DHT22;23886;46.614;14.276;2023-04-24T05:40:39;10.70;99.90
12315;DHT22;23886;46.614;14.276;2023-04-24T05:43:06;10.70;99.90
12315;DHT22;23886;46.614;14.276;2023-04-24T05:45:33;10.70;99.90
12315;DHT22;23886;46.614;14.276;2023-04-24T05:48:01;10.90;99.90
12315;DHT22;23886;46.614;14.276;2023-04-24T05:50:28;10.90;99.90
12315;DHT22;23886;46.614;14.276;2023-04-24T05:52:55;11.00;99.90
12315;DHT22;23886;46.614;14.276;2023-04-24T05:55:23;11.00;99.90
12315;DHT22;23886;46.614;14.276;2023-04-24T05:57:52;11.00;99.90
12315;DHT22;23886;46.614;14.276;2023-04-24T06:00:20;10.90;99.90
12315;DHT22;23886;46.614;14.276;2023-04-24T06:02:47;10.90;99.90
12315;DHT22;23886;46.614;14.276;2023-04-24T06:05:14;11.10;99.90
12315;DHT22;23886;46.614;14.276;2023-04-24T06:07:41;11.30;99.90
12315;DHT22;23886;46.614;14.276;2023-04-24T06:10:09;11.20;99.90
12315;DHT22;23886;46.614;14.276;2023-04-24T06:12:36;11.10;99.90
12315;DHT22;23886;46.614;14.276;2023-04-24T06:15:06;11.30;99.90
12315;DHT22;23886;46.614;14.276;2023-04-24T06:17:33;11.30;99.90
12315;DHT22;23886;46.614;14.276;2023-04-24T06:20:00;11.50;99.90
12315;DHT22;23886;46.614;14.276;2023-04-24T06:22:29;11.50;99.90
12315;DHT22;23886;46.614;14.276;2023-04-24T06:24:56;11.50;99.90
12315;DHT22;23886;46.614;14.276;2023-04-24T06:27:23;11.60;99.90
12315;DHT22;23886;46.614;14.276;2023-04-24T06:29:50;11.40;99.90
12315;DHT22;23886;46.614;14.276;2023-04-24T06:32:21;11.30;99.90
12315;DHT22;23886;46.614;14.276;2023-04-24T06:34:48;11.40;99.90
12315;DHT22;23886;46.614;14.276;2023-04-24T06:37:15;11.50;99.90
12315;DHT22;23886;46.614;14.276;2023-04-24T06:39:42;11.60;99.90
12315;DHT22;23886;46.614;14.276;2023-04-24T06:42:09;11.40;99.90
12315;DHT22;23886;46.614;14.276;2023-04-24T06:44:36;11.40;99.90
12315;DHT22;23886;46.614;14.276;2023-04-24T06:47:06;11.50;99.90
12315;DHT22;23886;46.614;14.276;2023-04-24T06:49:35;11.40;99.90
12315;DHT22;23886;46.614;14.276;2023-04-24T06:52:02;11.30;99.90
12315;DHT22;23886;46.614;14.276;2023-04-24T06:54:29;11.20;99.90
12315;DHT22;23886;46.614;14.276;2023-04-24T06:56:57;11.30;99.90
12315;DHT22;23886;46.614;14.276;2023-04-24T06:59:24;11.40;99.90
12315;DHT22;23886;46.614;14.276;2023-04-24T07:01:51;11.40;99.90
12315;DHT22;23886;46.614;14.276;2023-04-24T07:04:18;11.40;99.90
12315;DHT22;23886;46.614;14.276;2023-04-24T07:06:48;11.40;99.90
12315;DHT22;23886;46.614;14.276;2023-04-24T07:09:16;11.30;99.90
12315;DHT22;23886;46.614;14.276;2023-04-24T07:11:44;11.30;99.90
12315;DHT22;23886;46.614;14.276;2023-04-24T07:14:11;11.30;99.90
12315;DHT22;23886;46.614;14.276;2023-04-24T07:16:38;11.30;99.90
12315;DHT22;23886;46.614;14.276;2023-04-24T07:19:05;11.40;99.90
12315;DHT22;23886;46.614;14.276;2023-04-24T07:21:32;11.70;99.90
12315;DHT22;23886;46.614;14.276;2023-04-24T07:24:01;11.80;99.90
12315;DHT22;23886;46.614;14.276;2023-04-24T07:26:29;11.70;99.90
12315;DHT22;23886;46.614;14.276;2023-04-24T07:28:56;11.60;99.90
12315;DHT22;23886;46.614;14.276;2023-04-24T07:31:23;11.80;99.90
12315;DHT22;23886;46.614;14.276;2023-04-24T07:33:50;11.70;99.90
12315;DHT22;23886;46.614;14.276;2023-04-24T07:36:17;11.80;99.90
12315;DHT22;23886;46.614;14.276;2023-04-24T07:38:45;11.70;99.90
12315;DHT22;23886;46.614;14.276;2023-04-24T07:41:14;11.80;99.90
12315;DHT22;23886;46.614;14.276;2023-04-24T07:43:41;11.70;99.90
12315;DHT22;23886;46.614;14.276;2023-04-24T07:46:08;11.70;99.90
12315;DHT22;23886;46.614;14.276;2023-04-24T07:48:36;11.70;99.90
12315;DHT22;23886;46.614;14.276;2023-04-24T07:51:03;11.70;99.90
12315;DHT22;23886;46.614;14.276;2023-04-24T07:53:30;11.70;99.90
12315;DHT22;23886;46.614;14.276;2023-04-24T07:55:57;11.70;99.90
12315;DHT22;23886;46.614;14.276;2023-04-24T07:58:25;11.70;99.90
12315;DHT22;23886;46.614;14.276;2023-04-24T08:00:52;11.70;99.90
12315;DHT22;23886;46.614;14.276;2023-04-24T08:03:19;11.80;99.90
12315;DHT22;23886;46.614;14.276;2023-04-24T08:05:47;11.60;99.90
12315;DHT22;23886;46.614;14.276;2023-04-24T08:08:14;11.50;99.90
12315;DHT22;23886;46.614;14.276;2023-04-24T08:10:41;11.60;99.90
12315;DHT22;23886;46.614;14.276;2023-04-24T08:13:08;11.90;99.90
12315;DHT22;23886;46.614;14.276;2023-04-24T08:15:38;11.80;99.90
12315;DHT22;23886;46.614;14.276;2023-04-24T08:18:05;11.60;99.90
12315;DHT22;23886;46.614;14.276;2023-04-24T08:20:32;11.50;99.90
12315;DHT22;23886;46.614;14.276;2023-04-24T08:22:59;11.60;99.90
12315;DHT22;23886;46.614;14.276;2023-04-24T08:25:26;11.70;99.90
12315;DHT22;23886;46.614;14.276;2023-04-24T08:27:53;11.70;99.90
12315;DHT22;23886;46.614;14.276;2023-04-24T08:30:20;11.80;99.90
12315;DHT22;23886;46.614;14.276;2023-04-24T08:32:49;11.80;99.90
12315;DHT22;23886;46.614;14.276;2023-04-24T08:35:16;11.80;99.90
12315;DHT22;23886;46.614;14.276;2023-04-24T08:37:43;11.90;99.90
12315;DHT22;23886;46.614;14.276;2023-04-24T08:40:13;12.10;99.90
12315;DHT22;23886;46.614;14.276;2023-04-24T08:42:42;12.10;99.90
12315;DHT22;23886;46.614;14.276;2023-04-24T08:45:11;11.90;99.90
12315;DHT22;23886;46.614;14.276;2023-04-24T08:47:38;11.80;99.90
12315;DHT22;23886;46.614;14.276;2023-04-24T08:50:08;11.60;99.90
12315;DHT22;23886;46.614;14.276;2023-04-24T08:52:35;11.50;99.90
12315;DHT22;23886;46.614;14.276;2023-04-24T08:55:02;11.40;99.90
12315;DHT22;23886;46.614;14.276;2023-04-24T08:57:31;11.40;99.90
12315;DHT22;23886;46.614;14.276;2023-04-24T08:59:59;11.50;99.90
12315;DHT22;23886;46.614;14.276;2023-04-24T09:02:27;11.50;99.90
12315;DHT22;23886;46.614;14.276;2023-04-24T09:04:56;11.50;99.90
12315;DHT22;23886;46.614;14.276;2023-04-24T09:07:27;11.50;99.90
12315;DHT22;23886;46.614;14.276;2023-04-24T09:09:56;11.60;99.90
12315;DHT22;23886;46.614;14.276;2023-04-24T09:12:23;11.60;99.90
12315;DHT22;23886;46.614;14.276;2023-04-24T09:14:51;11.60;99.90
12315;DHT22;23886;46.614;14.276;2023-04-24T09:17:18;11.60;99.90
12315;DHT22;23886;46.614;14.276;2023-04-24T09:19:45;11.50;99.90
12315;DHT22;23886;46.614;14.276;2023-04-24T09:22:12;11.50;99.90
12315;DHT22;23886;46.614;14.276;2023-04-24T09:24:41;11.50;99.90
12315;DHT22;23886;46.614;14.276;2023-04-24T09:27:11;11.50;99.90
12315;DHT22;23886;46.614;14.276;2023-04-24T09:29:53;11.60;99.90
12315;DHT22;23886;46.614;14.276;2023-04-24T09:32:21;11.80;99.90
12315;DHT22;23886;46.614;14.276;2023-04-24T09:35:06;11.80;99.90
12315;DHT22;23886;46.614;14.276;2023-04-24T09:37:35;11.80;99.90
12315;DHT22;23886;46.614;14.276;2023-04-24T09:40:17;11.80;99.90
12315;DHT22;23886;46.614;14.276;2023-04-24T09:42:46;11.90;99.90
12315;DHT22;23886;46.614;14.276;2023-04-24T09:45:13;12.10;99.90
12315;DHT22;23886;46.614;14.276;2023-04-24T09:47:41;12.10;99.90
12315;DHT22;23886;46.614;14.276;2023-04-24T09:50:13;12.00;99.90
12315;DHT22;23886;46.614;14.276;2023-04-24T09:52:42;12.10;99.90
12315;DHT22;23886;46.614;14.276;2023-04-24T09:55:19;12.20;99.90
12315;DHT22;23886;46.614;14.276;2023-04-24T09:57:51;12.10;99.90
12315;DHT22;23886;46.614;14.276;2023-04-24T10:00:22;12.20;99.90
12315;DHT22;23886;46.614;14.276;2023-04-24T10:02:53;12.20;99.90
12315;DHT22;23886;46.614;14.276;2023-04-24T10:05:24;12.30;99.90
12315;DHT22;23886;46.614;14.276;2023-04-24T10:07:51;12.50;99.90
12315;DHT22;23886;46.614;14.276;2023-04-24T10:10:24;12.20;99.90
12315;DHT22;23886;46.614;14.276;2023-04-24T10:12:51;12.20;99.90
12315;DHT22;23886;46.614;14.276;2023-04-24T10:15:19;12.40;99.90
12315;DHT22;23886;46.614;14.276;2023-04-24T10:17:48;12.70;99.90
12315;DHT22;23886;46.614;14.276;2023-04-24T10:20:19;12.70;99.90
12315;DHT22;23886;46.614;14.276;2023-04-24T10:22:48;12.50;99.90
12315;DHT22;23886;46.614;14.276;2023-04-24T10:25:18;12.70;99.90
12315;DHT22;23886;46.614;14.276;2023-04-24T10:27:49;12.70;99.90
12315;DHT22;23886;46.614;14.276;2023-04-24T10:30:16;12.70;99.90
12315;DHT22;23886;46.614;14.276;2023-04-24T10:32:43;12.90;99.90
12315;DHT22;23886;46.614;14.276;2023-04-24T10:35:12;12.60;99.90
12315;DHT22;23886;46.614;14.276;2023-04-24T10:37:42;12.80;99.90
12315;DHT22;23886;46.614;14.276;2023-04-24T10:40:11;12.80;99.90
12315;DHT22;23886;46.614;14.276;2023-04-24T10:42:40;13.00;99.90
12315;DHT22;23886;46.614;14.276;2023-04-24T10:45:17;12.90;99.90
12315;DHT22;23886;46.614;14.276;2023-04-24T10:48:01;13.30;99.90
12315;DHT22;23886;46.614;14.276;2023-04-24T10:50:29;13.10;99.90
12315;DHT22;23886;46.614;14.276;2023-04-24T10:53:06;13.20;99.90
12315;DHT22;23886;46.614;14.276;2023-04-24T10:55:42;13.00;99.90
12315;DHT22;23886;46.614;14.276;2023-04-24T10:58:10;12.90;99.90
12315;DHT22;23886;46.614;14.276;2023-04-24T11:00:39;13.10;99.90
12315;DHT22;23886;46.614;14.276;2023-04-24T11:03:12;13.10;99.90
12315;DHT22;23886;46.614;14.276;2023-04-24T11:05:55;12.90;99.90
12315;DHT22;23886;46.614;14.276;2023-04-24T11:08:27;12.60;99.90
12315;DHT22;23886;46.614;14.276;2023-04-24T11:11:02;12.80;99.90
12315;DHT22;23886;46.614;14.276;2023-04-24T11:14:01;12.80;99.90
12315;DHT22;23886;46.614;14.276;2023-04-24T11:16:31;12.60;99.90
12315;DHT22;23886;46.614;14.276;2023-04-24T11:19:04;12.80;99.90
12315;DHT22;23886;46.614;14.276;2023-04-24T11:21:32;13.10;99.90
12315;DHT22;23886;46.614;14.276;2023-04-24T11:24:23;12.90;99.90
12315;DHT22;23886;46.614;14.276;2023-04-24T11:26:51;12.80;99.90
12315;DHT22;23886;46.614;14.276;2023-04-24T11:29:20;12.90;99.90
12315;DHT22;23886;46.614;14.276;2023-04-24T11:31:49;13.10;99.90
12315;DHT22;23886;46.614;14.276;2023-04-24T11:34:17;13.50;99.90
12315;DHT22;23886;46.614;14.276;2023-04-24T11:36:45;13.50;99.90
12315;DHT22;23886;46.614;14.276;2023-04-24T11:39:12;13.20;99.90
12315;DHT22;23886;46.614;14.276;2023-04-24T11:41:40;13.00;99.90
12315;DHT22;23886;46.614;14.276;2023-04-24T11:44:09;13.30;99.90
12315;DHT22;23886;46.614;14.276;2023-04-24T11:46:37;13.00;99.90
12315;DHT22;23886;46.614;14.276;2023-04-24T11:49:07;13.10;99.90
12315;DHT22;23886;46.614;14.276;2023-04-24T11:51:34;12.70;99.90
12315;DHT22;23886;46.614;14.276;2023-04-24T11:54:01;12.60;99.90
12315;DHT22;23886;46.614;14.276;2023-04-24T11:56:28;12.70;99.90
12315;DHT22;23886;46.614;14.276;2023-04-24T11:58:55;12.60;99.90
12315;DHT22;23886;46.614;14.276;2023-04-24T12:01:22;12.70;99.90
12315;DHT22;23886;46.614;14.276;2023-04-24T12:03:50;12.50;99.90
12315;DHT22;23886;46.614;14.276;2023-04-24T12:06:19;12.60;99.90
12315;DHT22;23886;46.614;14.276;2023-04-24T12:08:46;12.60;99.90
12315;DHT22;23886;46.614;14.276;2023-04-24T12:11:15;12.50;99.90
12315;DHT22;23886;46.614;14.276;2023-04-24T12:13:44;12.40;99.90
12315;DHT22;23886;46.614;14.276;2023-04-24T12:16:11;12.60;99.90
12315;DHT22;23886;46.614;14.276;2023-04-24T12:18:42;12.50;99.90
12315;DHT22;23886;46.614;14.276;2023-04-24T12:21:21;12.60;99.90
12315;DHT22;23886;46.614;14.276;2023-04-24T12:23:50;12.70;99.90
12315;DHT22;23886;46.614;14.276;2023-04-24T12:26:18;13.10;99.90
12315;DHT22;23886;46.614;14.276;2023-04-24T12:28:47;13.20;99.90
12315;DHT22;23886;46.614;14.276;2023-04-24T12:31:15;13.20;99.90
12315;DHT22;23886;46.614;14.276;2023-04-24T12:33:42;13.30;99.90
12315;DHT22;23886;46.614;14.276;2023-04-24T12:36:10;12.70;99.90
12315;DHT22;23886;46.614;14.276;2023-04-24T12:38:43;12.70;99.90
12315;DHT22;23886;46.614;14.276;2023-04-24T12:41:13;12.90;99.90
12315;DHT22;23886;46.614;14.276;2023-04-24T12:43:51;13.00;99.90
12315;DHT22;23886;46.614;14.276;2023-04-24T12:46:18;12.90;99.90
12315;DHT22;23886;46.614;14.276;2023-04-24T12:48:45;12.70;99.90
12315;DHT22;23886;46.614;14.276;2023-04-24T12:51:12;12.40;99.90
12315;DHT22;23886;46.614;14.276;2023-04-24T12:53:41;12.70;99.90
12315;DHT22;23886;46.614;14.276;2023-04-24T12:56:08;12.40;99.90
12315;DHT22;23886;46.614;14.276;2023-04-24T12:58:35;12.50;99.90
12315;DHT22;23886;46.614;14.276;2023-04-24T13:01:02;12.50;99.90
12315;DHT22;23886;46.614;14.276;2023-04-24T13:03:29;12.50;99.90
12315;DHT22;23886;46.614;14.276;2023-04-24T13:05:55;12.30;99.90
12315;DHT22;23886;46.614;14.276;2023-04-24T13:08:22;12.50;99.90
12315;DHT22;23886;46.614;14.276;2023-04-24T13:10:51;12.20;99.90
12315;DHT22;23886;46.614;14.276;2023-04-24T13:13:19;12.00;99.90
12315;DHT22;23886;46.614;14.276;2023-04-24T13:15:46;12.10;99.90
12315;DHT22;23886;46.614;14.276;2023-04-24T13:18:13;11.90;99.90
12315;DHT22;23886;46.614;14.276;2023-04-24T13:20:40;11.80;99.90
12315;DHT22;23886;46.614;14.276;2023-04-24T13:23:07;11.70;99.90
12315;DHT22;23886;46.614;14.276;2023-04-24T13:25:36;11.70;99.90
12315;DHT22;23886;46.614;14.276;2023-04-24T13:28:06;11.60;99.90
12315;DHT22;23886;46.614;14.276;2023-04-24T13:30:32;11.70;99.90
12315;DHT22;23886;46.614;14.276;2023-04-24T13:33:00;11.70;99.90
12315;DHT22;23886;46.614;14.276;2023-04-24T13:35:27;11.60;99.90
12315;DHT22;23886;46.614;14.276;2023-04-24T13:37:54;11.70;99.90
12315;DHT22;23886;46.614;14.276;2023-04-24T13:40:21;11.80;99.90
12315;DHT22;23886;46.614;14.276;2023-04-24T13:42:48;11.70;99.90
12315;DHT22;23886;46.614;14.276;2023-04-24T13:45:17;11.80;99.90
12315;DHT22;23886;46.614;14.276;2023-04-24T13:47:44;11.80;99.90
12315;DHT22;23886;46.614;14.276;2023-04-24T13:50:11;11.70;99.90
12315;DHT22;23886;46.614;14.276;2023-04-24T13:52:38;11.60;99.90
12315;DHT22;23886;46.614;14.276;2023-04-24T13:55:06;11.60;99.90
12315;DHT22;23886;46.614;14.276;2023-04-24T13:57:33;11.60;99.90
12315;DHT22;23886;46.614;14.276;2023-04-24T14:00:00;11.50;99.90
12315;DHT22;23886;46.614;14.276;2023-04-24T14:02:30;11.50;99.90
12315;DHT22;23886;46.614;14.276;2023-04-24T14:04:57;11.30;99.90
12315;DHT22;23886;46.614;14.276;2023-04-24T14:07:24;11.40;99.90
12315;DHT22;23886;46.614;14.276;2023-04-24T14:09:51;11.20;99.90
12315;DHT22;23886;46.614;14.276;2023-04-24T14:12:18;11.10;99.90
12315;DHT22;23886;46.614;14.276;2023-04-24T14:14:46;11.30;99.90
12315;DHT22;23886;46.614;14.276;2023-04-24T14:17:14;11.10;99.90
12315;DHT22;23886;46.614;14.276;2023-04-24T14:19:42;11.00;99.90
12315;DHT22;23886;46.614;14.276;2023-04-24T14:22:09;10.90;99.90
12315;DHT22;23886;46.614;14.276;2023-04-24T14:24:36;10.90;99.90
12315;DHT22;23886;46.614;14.276;2023-04-24T14:27:03;10.90;99.90
12315;DHT22;23886;46.614;14.276;2023-04-24T14:29:31;11.00;99.90
12315;DHT22;23886;46.614;14.276;2023-04-24T14:31:58;11.10;99.90
12315;DHT22;23886;46.614;14.276;2023-04-24T14:34:24;10.90;99.90
12315;DHT22;23886;46.614;14.276;2023-04-24T14:36:53;10.80;99.90
12315;DHT22;23886;46.614;14.276;2023-04-24T14:39:20;10.70;99.90
12315;DHT22;23886;46.614;14.276;2023-04-24T14:41:47;10.60;99.90
12315;DHT22;23886;46.614;14.276;2023-04-24T14:44:14;10.60;99.90
12315;DHT22;23886;46.614;14.276;2023-04-24T14:46:41;10.50;99.90
12315;DHT22;23886;46.614;14.276;2023-04-24T14:49:08;10.50;99.90
12315;DHT22;23886;46.614;14.276;2023-04-24T14:51:37;10.40;99.90
12315;DHT22;23886;46.614;14.276;2023-04-24T14:54:05;10.20;99.90
12315;DHT22;23886;46.614;14.276;2023-04-24T14:56:32;10.20;99.90
12315;DHT22;23886;46.614;14.276;2023-04-24T14:59:00;10.20;99.90
12315;DHT22;23886;46.614;14.276;2023-04-24T15:01:26;10.20;99.90
12315;DHT22;23886;46.614;14.276;2023-04-24T15:03:53;10.10;99.90
12315;DHT22;23886;46.614;14.276;2023-04-24T15:06:20;10.00;99.90
12315;DHT22;23886;46.614;14.276;2023-04-24T15:08:48;10.00;99.90
12315;DHT22;23886;46.614;14.276;2023-04-24T15:11:16;9.90;99.90
12315;DHT22;23886;46.614;14.276;2023-04-24T15:13:44;9.90;99.90
12315;DHT22;23886;46.614;14.276;2023-04-24T15:16:11;9.90;99.90
12315;DHT22;23886;46.614;14.276;2023-04-24T15:18:38;9.90;99.90
12315;DHT22;23886;46.614;14.276;2023-04-24T15:21:05;10.00;99.90
12315;DHT22;23886;46.614;14.276;2023-04-24T15:23:32;9.80;99.90